Time;durP1;ratioP1;P1;durP2;ratioP2;P2;SDS_P1;SDS_P2;PMS_P1;PMS_P2;Temp;Humidity;BMP_temperature;BMP_pressure;BME280_temperature;BME280_humidity;BME280_pressure;Samples;Min_cycle;Max_cycle;Signal;HPM_P1;HPM_P2
2021/04/20 00:01:57;;;;;;;17.52;10.15;;;7.10;81.70;;;;;;4901308;29;20044;-88
2021/04/20 00:04:23;;;;;;;22.90;9.65;;;7.10;82.00;;;;;;4917827;29;20031;-88
2021/04/20 00:06:49;;;;;;;23.15;8.55;;;7.00;82.20;;;;;;4917050;29;20036;-88
2021/04/20 00:09:14;;;;;;;17.67;8.43;;;7.00;82.50;;;;;;4918669;29;20482;-88
2021/04/20 00:11:41;;;;;;;18.60;8.77;;;7.00;82.90;;;;;;4919114;29;20028;-88
2021/04/20 00:14:08;;;;;;;21.25;9.88;;;7.00;83.00;;;;;;4901380;29;20052;-88
2021/04/20 00:16:34;;;;;;;16.83;9.20;;;6.90;83.20;;;;;;4901063;29;20028;-88
2021/04/20 00:19:01;;;;;;;14.73;8.40;;;6.90;83.40;;;;;;4901134;29;20032;-88
2021/04/20 00:21:27;;;;;;;20.20;9.25;;;6.90;83.60;;;;;;4918907;29;20043;-87
2021/04/20 00:23:53;;;;;;;15.68;8.18;;;6.80;83.80;;;;;;4905275;29;20028;-88
2021/04/20 00:26:19;;;;;;;17.23;9.27;;;6.80;84.20;;;;;;4910321;29;20036;-87
2021/04/20 00:28:44;;;;;;;18.00;8.68;;;6.70;84.50;;;;;;4927578;29;20035;-87
2021/04/20 00:31:10;;;;;;;16.15;8.75;;;6.60;84.80;;;;;;4911397;29;20029;-88
2021/04/20 00:33:36;;;;;;;18.35;9.48;;;6.60;85.20;;;;;;4917031;29;20024;-87
2021/04/20 00:36:03;;;;;;;16.23;8.57;;;6.60;85.40;;;;;;4932188;29;20046;-88
2021/04/20 00:38:28;;;;;;;15.65;8.95;;;6.50;85.70;;;;;;4915869;29;20040;-87
2021/04/20 00:41:05;;;;;;;16.83;9.10;;;6.50;86.00;;;;;;4931181;29;20111;-86
2021/04/20 00:43:46;;;;;;;17.80;10.05;;;6.50;86.20;;;;;;4908211;29;20257;-87
2021/04/20 00:46:20;;;;;;;19.58;10.25;;;6.40;86.50;;;;;;4908879;29;20028;-85
2021/04/20 00:48:47;;;;;;;20.95;11.50;;;6.40;86.80;;;;;;4918775;29;20101;-88
2021/04/20 00:51:15;;;;;;;19.45;10.30;;;6.40;87.00;;;;;;4902674;29;20024;-88
2021/04/20 00:53:41;;;;;;;22.55;11.23;;;6.30;87.30;;;;;;4919007;29;20387;-88
2021/04/20 00:56:08;;;;;;;19.73;10.40;;;6.30;87.60;;;;;;4902249;29;20035;-87
2021/04/20 00:58:33;;;;;;;18.48;10.70;;;6.20;87.90;;;;;;4902999;29;20032;-88
2021/04/20 01:01:00;;;;;;;18.40;9.98;;;6.20;88.30;;;;;;4918138;29;20509;-87
2021/04/20 01:03:26;;;;;;;24.80;11.23;;;6.20;88.60;;;;;;4901119;29;20032;-87
2021/04/20 01:05:52;;;;;;;22.17;11.23;;;6.20;88.90;;;;;;4918492;29;20020;-88
2021/04/20 01:08:21;;;;;;;22.67;11.13;;;6.10;89.20;;;;;;4919444;29;20036;-87
2021/04/20 01:10:52;;;;;;;22.15;9.70;;;6.10;89.50;;;;;;4901986;29;20036;-87
2021/04/20 01:13:18;;;;;;;20.08;10.80;;;6.10;89.80;;;;;;4918896;29;20083;-88
2021/04/20 01:15:50;;;;;;;15.50;8.57;;;6.00;90.00;;;;;;4917440;29;20047;-88
2021/04/20 01:18:18;;;;;;;20.70;11.05;;;6.00;90.10;;;;;;4901035;29;20130;-88
2021/04/20 01:20:47;;;;;;;23.63;11.10;;;6.00;90.30;;;;;;4916851;29;20113;-88
2021/04/20 01:23:19;;;;;;;24.88;11.68;;;5.90;90.40;;;;;;4919490;29;20023;-88
2021/04/20 01:25:46;;;;;;;22.25;11.65;;;5.90;90.50;;;;;;4919848;29;20099;-88
2021/04/20 01:28:12;;;;;;;21.00;10.50;;;5.80;90.60;;;;;;4901785;29;20047;-88
2021/04/20 01:30:38;;;;;;;20.42;10.30;;;5.80;90.80;;;;;;4918388;29;20494;-88
2021/04/20 01:33:05;;;;;;;19.85;10.30;;;5.70;90.90;;;;;;4919423;29;20036;-88
2021/04/20 01:35:34;;;;;;;24.63;11.27;;;5.70;91.10;;;;;;4902215;29;20025;-88
2021/04/20 01:38:04;;;;;;;22.52;10.65;;;5.70;91.30;;;;;;4901909;29;20228;-87
2021/04/20 01:40:31;;;;;;;18.88;9.07;;;5.70;91.40;;;;;;4918817;29;20039;-87
2021/04/20 01:43:01;;;;;;;19.80;9.98;;;5.70;91.50;;;;;;4900484;29;20398;-87
2021/04/20 01:45:29;;;;;;;26.95;11.18;;;5.60;91.70;;;;;;4901020;29;20043;-88
2021/04/20 01:47:55;;;;;;;19.55;10.02;;;5.60;91.80;;;;;;4916969;29;20126;-89
2021/04/20 01:50:25;;;;;;;21.80;10.00;;;5.60;91.90;;;;;;4917747;29;20032;-88
2021/04/20 01:52:51;;;;;;;18.77;10.50;;;5.50;92.00;;;;;;4901453;29;20137;-88
2021/04/20 01:55:17;;;;;;;21.10;11.40;;;5.50;92.10;;;;;;4901349;29;20036;-87
2021/04/20 01:57:46;;;;;;;19.98;10.35;;;5.50;92.20;;;;;;4900509;29;20655;-87
2021/04/20 02:00:14;;;;;;;21.20;9.60;;;5.40;92.30;;;;;;4900531;29;20115;-88
2021/04/20 02:02:41;;;;;;;22.08;9.63;;;5.40;92.40;;;;;;4899775;29;20036;-88
2021/04/20 02:05:09;;;;;;;18.52;10.25;;;5.40;92.60;;;;;;4901240;29;20035;-87
2021/04/20 02:07:38;;;;;;;19.85;10.88;;;5.30;92.80;;;;;;4917764;29;20066;-87
2021/04/20 02:10:06;;;;;;;23.85;10.73;;;5.30;92.90;;;;;;4899875;29;20032;-88
2021/04/20 02:12:32;;;;;;;23.13;11.63;;;5.30;93.00;;;;;;4901198;29;20039;-87
2021/04/20 02:14:58;;;;;;;22.95;11.40;;;5.30;93.10;;;;;;4900896;29;20059;-87
2021/04/20 02:17:25;;;;;;;21.17;10.82;;;5.30;93.30;;;;;;4900536;29;20080;-87
2021/04/20 02:19:51;;;;;;;20.73;10.43;;;5.20;93.50;;;;;;4916731;29;20119;-88
2021/04/20 02:22:18;;;;;;;25.02;12.20;;;5.20;93.60;;;;;;4917755;29;20051;-87
2021/04/20 02:24:44;;;;;;;25.30;11.10;;;5.10;93.70;;;;;;4916610;29;20500;-87
2021/04/20 02:27:11;;;;;;;22.13;10.57;;;5.10;93.70;;;;;;4903472;29;20032;-87
2021/04/20 02:29:37;;;;;;;21.50;11.40;;;5.10;93.90;;;;;;4903656;29;20032;-87
2021/04/20 02:32:03;;;;;;;21.25;11.93;;;5.10;94.10;;;;;;4903487;29;20161;-87
2021/04/20 02:34:29;;;;;;;23.90;12.13;;;5.00;94.20;;;;;;4904003;29;20036;-87
2021/04/20 02:36:56;;;;;;;24.73;11.63;;;5.00;94.20;;;;;;4904332;29;20111;-88
2021/04/20 02:39:22;;;;;;;22.77;11.00;;;5.00;94.40;;;;;;4920026;29;20100;-88
2021/04/20 02:41:50;;;;;;;27.50;11.93;;;5.00;94.60;;;;;;4904223;29;20036;-87
2021/04/20 02:44:16;;;;;;;24.35;11.50;;;5.00;94.70;;;;;;4904444;29;20064;-86
2021/04/20 02:46:45;;;;;;;21.30;11.23;;;4.90;94.80;;;;;;4919306;29;20024;-87
2021/04/20 02:49:12;;;;;;;21.77;11.57;;;4.90;94.90;;;;;;4903544;29;20036;-89
2021/04/20 02:51:39;;;;;;;23.25;11.15;;;4.90;94.90;;;;;;4919206;29;20032;-86
2021/04/20 02:54:07;;;;;;;19.88;11.10;;;4.80;95.00;;;;;;4903682;29;20034;-89
2021/04/20 02:56:34;;;;;;;22.77;11.50;;;4.80;95.10;;;;;;4903410;29;20024;-89
2021/04/20 02:59:03;;;;;;;23.48;12.00;;;4.80;95.30;;;;;;4920583;29;20478;-89
2021/04/20 03:01:31;;;;;;;24.45;12.45;;;4.70;95.40;;;;;;4903992;29;20028;-89
2021/04/20 03:03:58;;;;;;;20.85;11.32;;;4.70;95.60;;;;;;4920138;29;20032;-88
2021/04/20 03:06:24;;;;;;;23.63;12.02;;;4.70;95.60;;;;;;4919060;29;20047;-88
2021/04/20 03:08:51;;;;;;;28.17;11.90;;;4.70;95.80;;;;;;4902009;29;20036;-89
2021/04/20 03:11:23;;;;;;;23.85;11.20;;;4.60;95.80;;;;;;4902275;29;20028;-88
2021/04/20 03:13:51;;;;;;;25.40;12.05;;;4.60;95.90;;;;;;4901643;29;20486;-89
2021/04/20 03:16:17;;;;;;;27.02;12.52;;;4.60;96.00;;;;;;4902597;29;20032;-89
2021/04/20 03:18:43;;;;;;;21.25;11.93;;;4.50;96.10;;;;;;4903086;29;20482;-88
2021/04/20 03:21:14;;;;;;;18.98;10.35;;;4.50;96.20;;;;;;4919071;29;20039;-88
2021/04/20 03:23:40;;;;;;;25.58;11.93;;;4.40;96.20;;;;;;4903310;29;20038;-88
2021/04/20 03:26:26;;;;;;;26.00;11.32;;;4.40;96.30;;;;;;4920132;29;20028;-88
2021/04/20 03:28:57;;;;;;;22.08;11.77;;;4.40;96.40;;;;;;4902842;29;20059;-88
2021/04/20 03:31:24;;;;;;;24.90;12.18;;;4.30;96.50;;;;;;4902700;29;20028;-89
2021/04/20 03:33:55;;;;;;;22.80;11.77;;;4.40;96.70;;;;;;4902440;29;20028;-88
2021/04/20 03:36:26;;;;;;;27.40;11.68;;;4.30;96.70;;;;;;4902518;29;20138;-89
2021/04/20 03:38:51;;;;;;;23.50;11.95;;;4.30;96.70;;;;;;4901551;29;20494;-89
2021/04/20 03:41:24;;;;;;;23.17;11.52;;;4.20;96.70;;;;;;4902454;29;20063;-88
2021/04/20 03:43:52;;;;;;;26.98;11.65;;;4.20;96.90;;;;;;4919680;29;20032;-89
2021/04/20 03:46:30;;;;;;;26.88;13.77;;;4.20;97.00;;;;;;4905347;29;20036;-89
2021/04/20 03:49:01;;;;;;;24.50;11.70;;;4.20;97.20;;;;;;4922040;29;20051;-89
2021/04/20 03:51:29;;;;;;;26.45;12.30;;;4.20;97.30;;;;;;4906142;29;20052;-88
2021/04/20 03:54:03;;;;;;;24.77;12.63;;;4.10;97.40;;;;;;4911428;29;20036;-89
2021/04/20 03:56:31;;;;;;;25.27;12.43;;;4.10;97.50;;;;;;4913182;29;20036;-88
2021/04/20 03:59:03;;;;;;;25.98;12.52;;;4.10;97.60;;;;;;4911360;29;20039;-89
2021/04/20 04:01:39;;;;;;;21.70;12.05;;;4.10;97.60;;;;;;4909681;29;20028;-88
2021/04/20 04:04:22;;;;;;;27.05;12.35;;;4.00;97.70;;;;;;4906296;29;20088;-89
2021/04/20 04:06:48;;;;;;;24.70;12.23;;;4.00;97.80;;;;;;4903880;29;20142;-89
2021/04/20 04:09:18;;;;;;;24.55;11.88;;;4.00;97.80;;;;;;4904342;29;20032;-89
2021/04/20 04:11:54;;;;;;;25.95;12.77;;;3.90;97.90;;;;;;4903351;29;20359;-88
2021/04/20 04:14:31;;;;;;;23.90;12.75;;;3.90;98.00;;;;;;4902938;29;20048;-88
2021/04/20 04:17:00;;;;;;;24.25;12.20;;;3.80;98.00;;;;;;4902271;29;20024;-88
2021/04/20 04:19:33;;;;;;;29.02;14.38;;;3.80;98.20;;;;;;4917508;29;20118;-89
2021/04/20 04:22:08;;;;;;;27.08;13.68;;;3.80;98.30;;;;;;4919657;29;20508;-89
2021/04/20 04:24:58;;;;;;;24.13;12.80;;;3.70;98.40;;;;;;4921391;29;20028;-89
2021/04/20 04:27:28;;;;;;;27.00;12.63;;;3.70;98.50;;;;;;4891192;29;20637;-89
2021/04/20 04:29:56;;;;;;;25.73;12.77;;;3.70;98.60;;;;;;4901468;29;20024;-89
2021/04/20 04:32:24;;;;;;;25.42;12.52;;;3.60;98.80;;;;;;4901219;29;20457;-89
2021/04/20 04:34:50;;;;;;;27.35;12.93;;;3.60;98.90;;;;;;4901176;29;20076;-88
2021/04/20 04:37:17;;;;;;;27.05;13.80;;;3.70;99.00;;;;;;4900805;29;20122;-88
2021/04/20 04:39:44;;;;;;;24.35;12.45;;;3.60;98.90;;;;;;4900984;29;20119;-88
2021/04/20 04:42:10;;;;;;;28.05;13.32;;;3.60;99.00;;;;;;4900622;29;20072;-88
2021/04/20 04:44:36;;;;;;;27.83;13.40;;;3.60;99.10;;;;;;4900515;29;20036;-89
2021/04/20 04:47:02;;;;;;;30.50;13.57;;;3.50;99.20;;;;;;4900394;29;20474;-89
2021/04/20 04:49:31;;;;;;;29.05;13.10;;;3.50;99.20;;;;;;4900695;29;20492;-88
2021/04/20 04:51:57;;;;;;;30.48;14.02;;;3.50;99.30;;;;;;4902543;29;20031;-89
2021/04/20 04:54:24;;;;;;;25.15;13.52;;;3.40;99.60;;;;;;4902446;29;20028;-88
2021/04/20 04:56:50;;;;;;;25.58;13.07;;;3.40;99.50;;;;;;4917501;29;20032;-88
2021/04/20 04:59:19;;;;;;;27.25;12.60;;;3.40;99.60;;;;;;4918763;29;20040;-88
2021/04/20 05:01:45;;;;;;;26.88;13.85;;;3.40;99.70;;;;;;4900815;29;20032;-86
2021/04/20 05:04:13;;;;;;;21.83;11.80;;;3.40;99.80;;;;;;4900790;29;20092;-87
2021/04/20 05:06:51;;;;;;;31.77;14.10;;;3.40;99.90;;;;;;4907925;29;20028;-89
2021/04/20 05:09:19;;;;;;;27.33;13.63;;;3.40;99.90;;;;;;4923513;29;20035;-88
2021/04/20 05:11:47;;;;;;;27.88;13.43;;;3.40;99.90;;;;;;4932931;29;20024;-89
2021/04/20 05:14:15;;;;;;;29.83;14.77;;;3.40;99.90;;;;;;4934483;29;20047;-88
2021/04/20 05:16:44;;;;;;;27.60;13.88;;;3.40;99.90;;;;;;4917776;29;20036;-87
2021/04/20 05:19:11;;;;;;;28.65;13.38;;;3.40;99.90;;;;;;4918650;29;20023;-86
2021/04/20 05:21:40;;;;;;;30.40;13.75;;;3.40;99.90;;;;;;4917907;29;20450;-88
2021/04/20 05:24:07;;;;;;;33.33;13.93;;;3.40;99.90;;;;;;4916502;29;20363;-88
2021/04/20 05:26:33;;;;;;;28.83;14.48;;;3.40;99.90;;;;;;4921197;29;20103;-87
2021/04/20 05:29:00;;;;;;;31.85;13.80;;;3.40;99.90;;;;;;4914683;29;20043;-87
2021/04/20 05:31:26;;;;;;;32.20;14.80;;;3.40;99.90;;;;;;4921814;29;20446;-85
2021/04/20 05:33:57;;;;;;;30.85;14.10;;;3.40;99.90;;;;;;4945037;29;20038;-86
2021/04/20 05:36:23;;;;;;;26.50;13.90;;;3.30;99.90;;;;;;4930099;29;20030;-86
2021/04/20 05:38:54;;;;;;;31.02;15.48;;;3.30;99.90;;;;;;4916206;29;20478;-88
2021/04/20 05:41:30;;;;;;;33.15;15.20;;;3.30;99.90;;;;;;4916358;29;20055;-86
2021/04/20 05:43:57;;;;;;;31.45;14.18;;;3.30;99.90;;;;;;4914620;29;20028;-87
2021/04/20 05:46:23;;;;;;;35.35;15.32;;;3.30;99.90;;;;;;4915854;29;20028;-88
2021/04/20 05:48:50;;;;;;;29.45;14.60;;;3.20;99.90;;;;;;4917806;29;20073;-88
2021/04/20 05:51:16;;;;;;;35.15;14.93;;;3.20;99.90;;;;;;4937580;29;20067;-88
2021/04/20 05:53:43;;;;;;;36.63;16.05;;;3.10;99.90;;;;;;4919076;29;20035;-88
2021/04/20 05:56:09;;;;;;;35.20;15.55;;;3.10;99.90;;;;;;4916946;29;20087;-86
2021/04/20 05:58:36;;;;;;;35.10;15.50;;;3.10;99.90;;;;;;4926355;29;20055;-87
2021/04/20 06:01:05;;;;;;;31.17;15.23;;;3.10;99.90;;;;;;4939162;29;20027;-87
2021/04/20 06:03:42;;;;;;;38.28;15.32;;;3.20;99.90;;;;;;4928114;29;20494;-87
2021/04/20 06:06:17;;;;;;;33.58;15.30;;;3.20;99.90;;;;;;4915324;29;20481;-87
2021/04/20 06:08:44;;;;;;;32.50;15.50;;;3.30;99.90;;;;;;4941980;29;20078;-88
2021/04/20 06:11:10;;;;;;;30.75;15.00;;;3.30;99.90;;;;;;4936386;29;20040;-88
2021/04/20 06:13:37;;;;;;;27.73;12.65;;;3.30;99.90;;;;;;4919415;29;20055;-87
2021/04/20 06:16:04;;;;;;;25.58;12.25;;;3.40;99.90;;;;;;4927427;29;20034;-88
2021/04/20 06:18:31;;;;;;;34.55;13.85;;;3.60;99.90;;;;;;4917093;29;20035;-87
2021/04/20 06:21:00;;;;;;;22.70;12.32;;;3.80;99.90;;;;;;4912182;29;20024;-88
2021/04/20 06:23:27;;;;;;;28.50;14.30;;;4.10;99.90;;;;;;4930161;29;20032;-87
2021/04/20 06:26:04;;;;;;;25.02;12.68;;;4.30;99.90;;;;;;4908300;29;20028;-89
2021/04/20 06:28:32;;;;;;;25.15;14.05;;;4.50;99.90;;;;;;4913315;29;20421;-87
2021/04/20 06:31:03;;;;;;;32.30;13.48;;;4.70;99.90;;;;;;4906704;29;20055;-87
2021/04/20 06:33:36;;;;;;;27.08;13.48;;;4.80;99.90;;;;;;4914465;29;20563;-87
2021/04/20 06:36:05;;;;;;;28.25;12.93;;;5.00;99.90;;;;;;4923299;29;20042;-88
2021/04/20 06:38:34;;;;;;;27.25;12.43;;;5.10;99.90;;;;;;4931018;29;20060;-88
2021/04/20 06:41:03;;;;;;;28.63;13.65;;;5.20;99.90;;;;;;4920492;29;20141;-88
2021/04/20 06:43:45;;;;;;;28.15;13.95;;;5.30;99.90;;;;;;4909431;29;20046;-88
2021/04/20 06:46:15;;;;;;;29.85;13.77;;;5.50;99.90;;;;;;4929158;29;20031;-86
2021/04/20 06:48:54;;;;;;;28.83;14.10;;;5.60;99.90;;;;;;4928964;29;20039;-86
2021/04/20 06:51:23;;;;;;;29.27;14.10;;;5.60;99.80;;;;;;4915811;29;20781;-86
2021/04/20 06:54:14;;;;;;;26.52;13.60;;;5.70;99.60;;;;;;4915972;29;20031;-87
2021/04/20 06:56:48;;;;;;;26.40;14.35;;;5.80;99.40;;;;;;4903904;29;20031;-87
2021/04/20 06:59:26;;;;;;;23.55;13.00;;;5.90;99.10;;;;;;4913774;29;20479;-89
2021/04/20 07:02:06;;;;;;;28.45;12.80;;;6.00;99.00;;;;;;4940370;29;20059;-90
2021/04/20 07:04:40;;;;;;;26.48;13.23;;;6.00;98.80;;;;;;4917684;29;20036;-87
2021/04/20 07:07:16;;;;;;;26.85;13.45;;;6.10;98.70;;;;;;4913113;29;20036;-86
2021/04/20 07:09:48;;;;;;;24.80;13.15;;;6.20;98.50;;;;;;4922297;29;20505;-89
2021/04/20 07:12:17;;;;;;;27.42;13.52;;;6.30;98.30;;;;;;4924147;29;20535;-86
2021/04/20 07:14:52;;;;;;;30.58;16.77;;;6.40;98.20;;;;;;4909953;29;20059;-87
2021/04/20 07:17:18;;;;;;;25.60;13.90;;;6.40;98.00;;;;;;4907108;29;20032;-89
2021/04/20 07:20:02;;;;;;;34.28;16.35;;;6.50;97.90;;;;;;4902131;29;20031;-87
2021/04/20 07:23:03;;;;;;;30.42;16.17;;;6.60;97.80;;;;;;4916867;29;20068;-89
2021/04/20 07:26:23;;;;;;;25.17;13.68;;;6.70;97.80;;;;;;4903382;29;20059;-87
2021/04/20 07:29:27;;;;;;;29.58;14.32;;;6.70;98.00;;;;;;4904565;29;20040;-87
2021/04/20 07:32:26;;;;;;;38.08;16.55;;;6.80;97.60;;;;;;4909818;29;20029;-87
2021/04/20 07:35:13;;;;;;;35.65;16.80;;;6.90;97.50;;;;;;4906856;29;20087;-86
2021/04/20 07:37:39;;;;;;;34.58;15.65;;;6.90;97.70;;;;;;4902969;29;20020;-87
2021/04/20 07:40:13;;;;;;;35.40;16.67;;;6.90;97.90;;;;;;4904811;29;20091;-88
2021/04/20 07:42:56;;;;;;;35.20;18.13;;;7.00;98.00;;;;;;4905274;29;20043;-88
2021/04/20 07:45:44;;;;;;;26.80;14.02;;;7.10;98.20;;;;;;4904399;29;20047;-88
2021/04/20 07:48:23;;;;;;;26.98;15.18;;;7.20;98.10;;;;;;4903609;29;20044;-89
2021/04/20 07:50:57;;;;;;;31.70;16.55;;;7.40;97.80;;;;;;4902600;29;20056;-88
2021/04/20 07:53:48;;;;;;;31.23;14.73;;;7.50;97.60;;;;;;4902466;29;20040;-89
2021/04/20 07:56:21;;;;;;;33.42;16.73;;;7.60;97.70;;;;;;4902818;29;20032;-89
2021/04/20 07:58:51;;;;;;;32.72;16.90;;;7.70;97.50;;;;;;4905627;29;20068;-89
2021/04/20 08:01:35;;;;;;;28.15;15.45;;;7.90;97.60;;;;;;4906358;29;20043;-88
2021/04/20 08:04:38;;;;;;;32.10;16.05;;;8.00;97.70;;;;;;4911200;29;20064;-89
2021/04/20 08:07:12;;;;;;;34.13;16.38;;;8.20;97.60;;;;;;4904015;29;20028;-89
2021/04/20 08:09:42;;;;;;;33.25;17.98;;;8.40;97.50;;;;;;4902722;29;20064;-89
2021/04/20 08:12:15;;;;;;;33.08;16.52;;;8.50;97.60;;;;;;4902501;29;20024;-89
2021/04/20 08:15:03;;;;;;;31.90;17.27;;;8.70;97.60;;;;;;4901502;29;20052;-90
2021/04/20 08:17:55;;;;;;;32.00;17.20;;;8.90;97.40;;;;;;4901228;29;20435;-89
2021/04/20 08:20:24;;;;;;;31.00;16.55;;;9.10;97.30;;;;;;4901642;29;20123;-89
2021/04/20 08:22:51;;;;;;;30.90;16.63;;;9.30;97.10;;;;;;4896667;29;20040;-90
2021/04/20 08:25:34;;;;;;;28.27;14.73;;;9.40;97.00;;;;;;4912441;29;20028;-91
2021/04/20 08:28:31;;;;;;;31.48;16.25;;;9.60;96.90;;;;;;4903514;29;20032;-91
2021/04/20 08:31:06;;;;;;;30.90;16.23;;;9.80;96.50;;;;;;4905116;29;20055;-92
2021/04/20 08:33:36;;;;;;;35.00;16.35;;;10.10;96.30;;;;;;4920513;29;20038;-91
2021/04/20 08:36:10;;;;;;;31.50;17.03;;;10.30;96.10;;;;;;4924141;29;20060;-91
2021/04/20 08:39:01;;;;;;;32.33;16.83;;;10.40;95.80;;;;;;4928584;29;20032;-91
2021/04/20 08:41:42;;;;;;;35.63;19.35;;;10.60;95.40;;;;;;4922016;29;20126;-91
2021/04/20 08:44:30;;;;;;;35.88;16.88;;;10.80;95.10;;;;;;4936469;29;20438;-91
2021/04/20 08:47:05;;;;;;;34.42;16.80;;;11.00;94.90;;;;;;4919048;29;20032;-91
2021/04/20 08:49:40;;;;;;;32.72;16.77;;;11.20;94.70;;;;;;4919232;29;20040;-91
2021/04/20 08:52:16;;;;;;;31.83;16.90;;;11.40;94.50;;;;;;4928280;29;20640;-91
2021/04/20 08:55:05;;;;;;;34.42;17.30;;;11.60;94.30;;;;;;4941220;29;20024;-90
2021/04/20 08:58:07;;;;;;;35.40;17.00;;;11.80;94.10;;;;;;4940898;29;20036;-91
2021/04/20 09:01:02;;;;;;;41.85;17.90;;;12.00;93.80;;;;;;4923830;29;20024;-92
2021/04/20 09:03:45;;;;;;;35.33;17.77;;;12.20;93.40;;;;;;4920785;29;20063;-91
2021/04/20 09:06:27;;;;;;;29.95;16.13;;;12.40;93.10;;;;;;4916316;29;20024;-91
2021/04/20 09:09:00;;;;;;;31.77;16.48;;;12.60;92.60;;;;;;4900591;29;20486;-90
2021/04/20 09:11:31;;;;;;;26.42;14.82;;;12.80;92.10;;;;;;4900677;29;20196;-91
2021/04/20 09:14:06;;;;;;;28.13;16.17;;;13.10;91.60;;;;;;4916308;29;20067;-90
2021/04/20 09:16:42;;;;;;;34.00;16.85;;;13.30;91.00;;;;;;4900601;29;20032;-91
2021/04/20 09:19:18;;;;;;;29.77;15.27;;;13.60;90.60;;;;;;4903538;29;20027;-91
2021/04/20 09:21:47;;;;;;;23.98;13.02;;;13.80;90.10;;;;;;4918154;29;20126;-90
2021/04/20 09:24:20;;;;;;;24.73;12.45;;;14.00;88.80;;;;;;4919051;29;20032;-90
2021/04/20 09:27:01;;;;;;;21.90;11.48;;;14.20;86.90;;;;;;4919181;29;20126;-91
2021/04/20 09:29:35;;;;;;;15.70;9.13;;;14.50;85.30;;;;;;4920472;29;20058;-91
2021/04/20 09:32:17;;;;;;;22.48;10.82;;;14.70;82.40;;;;;;4930238;29;20047;-90
2021/04/20 09:34:47;;;;;;;24.50;11.55;;;14.90;79.60;;;;;;4936613;29;20028;-90
2021/04/20 09:37:16;;;;;;;19.48;12.05;;;15.20;78.40;;;;;;4902684;29;20062;-91
2021/04/20 09:39:45;;;;;;;21.60;12.25;;;15.40;76.30;;;;;;4919589;29;20049;-90
2021/04/20 09:42:12;;;;;;;26.23;12.07;;;15.60;75.00;;;;;;4918902;29;20034;-91
2021/04/20 09:44:51;;;;;;;17.48;10.30;;;15.80;73.80;;;;;;4918604;29;20031;-90
2021/04/20 09:47:53;;;;;;;17.45;10.40;;;16.10;71.60;;;;;;4919922;29;20138;-90
2021/04/20 09:51:01;;;;;;;24.30;11.15;;;16.30;70.10;;;;;;4918885;29;20032;-90
2021/04/20 09:53:51;;;;;;;26.63;11.13;;;16.50;68.60;;;;;;4918998;29;20035;-90
2021/04/20 09:56:42;;;;;;;23.33;11.35;;;16.70;67.70;;;;;;4935956;29;20118;-89
2021/04/20 09:59:39;;;;;;;21.55;10.50;;;16.90;66.80;;;;;;4918522;29;20070;-90
2021/04/20 10:02:11;;;;;;;20.77;10.30;;;17.10;65.90;;;;;;4934853;29;20130;-89
2021/04/20 10:04:40;;;;;;;18.27;10.43;;;17.30;65.40;;;;;;4903615;29;20032;-89
2021/04/20 10:07:33;;;;;;;16.77;10.77;;;17.50;64.50;;;;;;4929133;29;20031;-90
2021/04/20 10:10:07;;;;;;;18.27;11.27;;;17.60;63.50;;;;;;4919399;29;20032;-90
2021/04/20 10:12:54;;;;;;;17.27;10.75;;;17.70;62.80;;;;;;4921969;29;20032;-89
2021/04/20 10:15:41;;;;;;;21.08;11.43;;;17.80;61.90;;;;;;4902389;29;20088;-90
2021/04/20 10:18:32;;;;;;;17.85;11.00;;;17.90;61.70;;;;;;4916811;29;20032;-90
2021/04/20 10:53:13;;;;;;;20.40;10.95;;;18.30;57.70;;;;;;5131795;27;20942;-89
2021/04/20 10:55:45;;;;;;;19.85;11.38;;;17.30;59.60;;;;;;5131867;27;20084;-89
2021/04/20 10:58:12;;;;;;;18.98;11.18;;;17.30;60.00;;;;;;5115607;28;20024;-90
2021/04/20 11:00:39;;;;;;;16.90;10.23;;;17.20;60.20;;;;;;5132674;27;20016;-92
2021/04/20 11:03:07;;;;;;;23.00;11.55;;;17.20;61.20;;;;;;5113004;27;20067;-90
2021/04/20 11:05:33;;;;;;;22.15;12.20;;;17.10;60.50;;;;;;5113305;28;20027;-91
2021/04/20 11:07:59;;;;;;;20.35;12.25;;;17.20;60.60;;;;;;5117752;27;20432;-91
2021/04/20 11:10:35;;;;;;;22.63;13.45;;;17.10;60.40;;;;;;5106511;28;20020;-91
2021/04/20 11:13:00;;;;;;;20.35;13.15;;;17.10;60.30;;;;;;5126172;27;20056;-90
2021/04/20 11:15:28;;;;;;;26.05;13.32;;;17.10;60.40;;;;;;5132367;28;20091;-91
2021/04/20 11:17:57;;;;;;;27.70;14.32;;;17.10;60.50;;;;;;5134803;28;20023;-91
2021/04/20 11:20:25;;;;;;;28.02;14.13;;;17.00;60.60;;;;;;5135219;27;20033;-91
2021/04/20 11:22:57;;;;;;;25.38;12.55;;;16.90;60.70;;;;;;5130664;28;20034;-92
2021/04/20 11:25:32;;;;;;;27.35;14.60;;;16.90;60.90;;;;;;5117390;28;20034;-90
2021/04/20 11:28:13;;;;;;;24.80;14.20;;;16.90;61.00;;;;;;5115969;28;20086;-92
2021/04/20 11:30:44;;;;;;;26.15;14.70;;;16.90;61.20;;;;;;5133343;27;20606;-91
2021/04/20 11:33:13;;;;;;;27.08;13.80;;;16.90;61.40;;;;;;5112402;28;20054;-91
2021/04/20 11:35:47;;;;;;;25.40;14.10;;;16.80;61.50;;;;;;5112139;28;20024;-91
2021/04/20 11:38:16;;;;;;;33.05;15.27;;;16.80;61.50;;;;;;5112191;28;20036;-92
2021/04/20 11:40:53;;;;;;;24.40;13.90;;;16.70;61.50;;;;;;5092762;28;20063;-91
2021/04/20 11:43:19;;;;;;;31.02;14.50;;;16.60;61.60;;;;;;5110238;28;20032;-91
2021/04/20 11:45:46;;;;;;;30.08;14.95;;;16.60;61.70;;;;;;5108829;28;20453;-91
2021/04/20 11:48:25;;;;;;;30.67;15.25;;;16.60;61.60;;;;;;5110773;28;20028;-92
2021/04/20 11:50:53;;;;;;;29.77;15.35;;;16.60;61.60;;;;;;5092274;28;20494;-89
2021/04/20 11:53:20;;;;;;;29.52;15.15;;;16.50;61.70;;;;;;5084822;28;20032;-88
2021/04/20 11:55:47;;;;;;;27.45;15.35;;;16.50;61.50;;;;;;5082788;28;20161;-91
2021/04/20 11:58:31;;;;;;;26.00;14.43;;;16.40;61.50;;;;;;5080495;28;20085;-91
2021/04/20 12:01:05;;;;;;;28.58;15.15;;;16.40;61.80;;;;;;5077949;28;20172;-92
2021/04/20 12:03:32;;;;;;;31.92;15.13;;;16.40;61.80;;;;;;5095198;28;20042;-91
2021/04/20 12:06:00;;;;;;;29.13;14.38;;;16.40;61.80;;;;;;5078899;28;20028;-92
2021/04/20 12:08:39;;;;;;;29.45;14.70;;;16.40;61.50;;;;;;5078149;28;20115;-91
2021/04/20 12:11:09;;;;;;;29.40;14.93;;;16.30;61.50;;;;;;5078064;28;20399;-90
2021/04/20 12:13:36;;;;;;;;;;;16.30;61.40;;;;;;5084121;28;20106;-92
2021/04/20 12:16:06;;;;;;;27.08;13.55;;;16.30;61.40;;;;;;5079776;28;19904;-91
2021/04/20 12:18:33;;;;;;;25.30;13.65;;;16.30;61.40;;;;;;5077405;28;20020;-90
2021/04/20 12:21:08;;;;;;;29.92;14.80;;;16.30;61.30;;;;;;5077456;28;20052;-92
2021/04/20 12:23:40;;;;;;;23.98;13.38;;;16.40;61.30;;;;;;5078334;28;20524;-91
2021/04/20 12:26:07;;;;;;;25.92;14.70;;;16.40;61.30;;;;;;5082100;28;20111;-90
2021/04/20 12:28:38;;;;;;;29.58;13.75;;;16.40;61.30;;;;;;5104064;28;20034;-91
2021/04/20 12:31:04;;;;;;;21.08;13.63;;;16.50;61.30;;;;;;5115571;28;20032;-91
2021/04/20 12:33:32;;;;;;;25.75;12.32;;;16.50;61.20;;;;;;5115349;28;20456;-91
2021/04/20 12:35:59;;;;;;;25.98;12.85;;;16.50;61.10;;;;;;5111360;28;20072;-90
2021/04/20 12:38:28;;;;;;;29.25;13.77;;;16.50;61.10;;;;;;5078340;28;20020;-91
2021/04/20 12:41:05;;;;;;;24.48;13.88;;;16.60;60.80;;;;;;5079580;28;20053;-90
2021/04/20 12:43:34;;;;;;;22.55;13.48;;;16.60;60.60;;;;;;5078271;28;20500;-90
2021/04/20 12:46:10;;;;;;;24.20;14.48;;;16.60;60.50;;;;;;5078161;28;20107;-90
2021/04/20 12:48:41;;;;;;;22.05;11.18;;;16.70;60.30;;;;;;5080848;28;20174;-90
2021/04/20 12:51:12;;;;;;;22.88;12.70;;;16.70;60.30;;;;;;5089378;28;20040;-90
2021/04/20 12:53:39;;;;;;;22.17;12.75;;;16.80;60.30;;;;;;5120593;28;20042;-90
2021/04/20 12:56:08;;;;;;;23.63;12.88;;;16.80;60.10;;;;;;5119656;28;20026;-90
2021/04/20 12:58:39;;;;;;;25.08;13.68;;;16.90;60.00;;;;;;5119949;28;20050;-89
2021/04/20 13:01:07;;;;;;;21.95;14.23;;;16.90;59.90;;;;;;5117410;28;20508;-89
2021/04/20 13:03:34;;;;;;;23.27;12.68;;;16.80;59.80;;;;;;5115979;28;20035;-90
2021/04/20 13:06:08;;;;;;;24.38;13.13;;;16.90;59.70;;;;;;5116450;28;20020;-89
2021/04/20 13:08:41;;;;;;;23.02;13.10;;;16.90;59.20;;;;;;5122932;28;20031;-90
2021/04/20 13:11:08;;;;;;;21.75;12.75;;;16.80;59.20;;;;;;5120570;28;20027;-91
2021/04/20 13:13:36;;;;;;;26.15;14.05;;;16.80;59.80;;;;;;5106653;28;20058;-90
2021/04/20 13:16:03;;;;;;;22.05;13.57;;;16.80;59.10;;;;;;5108817;28;20067;-90
2021/04/20 13:18:32;;;;;;;22.33;12.35;;;16.70;58.90;;;;;;5114091;28;20031;-90
2021/04/20 13:21:00;;;;;;;19.67;12.73;;;16.70;58.90;;;;;;5114835;28;20035;-90
2021/04/20 13:23:36;;;;;;;20.70;12.77;;;16.70;59.00;;;;;;5113362;28;20024;-90
2021/04/20 13:26:08;;;;;;;23.10;12.80;;;16.80;59.10;;;;;;5083206;28;20028;-89
2021/04/20 13:28:40;;;;;;;23.48;13.48;;;16.90;59.00;;;;;;5082284;28;20016;-89
2021/04/20 13:31:12;;;;;;;24.77;13.18;;;16.90;58.90;;;;;;5080741;28;20082;-90
2021/04/20 13:33:42;;;;;;;26.88;13.65;;;16.90;58.80;;;;;;5080082;28;20024;-89